Terminal Aerodrome Forecast
Issued by NWS Wilmington, OH

Current Version | Previous Version | Text Only | Print | Product List | Glossary On
Versions: 1 2 3 4 5 6 7 8 9 10 11 12 13 14
399
FTUS41 KILN 291131
TAFCMH
TAF
KCMH 291131Z 2912/3012 19006KT P6SM BKN250
     FM291600 22012G22KT P6SM SCT040 BKN250
     FM292300 21006KT P6SM BKN250=

USA.gov is the U.S. government's official web portal to all federal, state and local government web resources and services.